Time;durP1;ratioP1;P1;durP2;ratioP2;P2;SDS_P1;SDS_P2;PMS_P1;PMS_P2;Temp;Humidity;BMP_temperature;BMP_pressure;BME280_temperature;BME280_humidity;BME280_pressure;Samples;Min_cycle;Max_cycle;Signal;HPM_P1;HPM_P2
2022/01/14 00:01:17;;;;;;;44.92;17.52;;;5.90;99.90;;;;;;5036274;28;20446;-69
2022/01/14 00:03:42;;;;;;;39.05;17.42;;;5.90;99.90;;;;;;5046514;28;20036;-68
2022/01/14 00:06:09;;;;;;;42.83;16.58;;;5.90;99.90;;;;;;5019631;28;20094;-70
2022/01/14 00:08:35;;;;;;;45.35;17.95;;;6.00;99.90;;;;;;5048587;28;20365;-68
2022/01/14 00:11:02;;;;;;;41.28;17.60;;;6.00;99.90;;;;;;5042691;28;20059;-68
2022/01/14 00:13:52;;;;;;;49.03;19.05;;;6.00;99.90;;;;;;5030822;28;20041;-68
2022/01/14 00:16:19;;;;;;;42.30;18.05;;;6.00;99.90;;;;;;5025213;28;20044;-67
2022/01/14 00:18:45;;;;;;;44.05;17.30;;;6.00;99.90;;;;;;5040683;28;20041;-68
2022/01/14 00:21:11;;;;;;;43.28;16.42;;;6.00;99.90;;;;;;5042523;28;20117;-68
2022/01/14 00:23:39;;;;;;;40.38;17.67;;;6.00;99.90;;;;;;5039880;28;20046;-67
2022/01/14 00:34:11;;;;;;;39.50;16.35;;;6.00;99.90;;;;;;5028326;28;20107;-68
2022/01/14 00:36:37;;;;;;;38.08;16.48;;;5.90;99.90;;;;;;5013484;28;20041;-69
2022/01/14 00:39:04;;;;;;;43.13;16.45;;;5.90;99.90;;;;;;5040288;28;20122;-67
2022/01/14 00:41:29;;;;;;;39.30;17.45;;;5.90;99.90;;;;;;5047172;28;20045;-67
2022/01/14 00:44:01;;;;;;;42.35;16.80;;;6.00;99.90;;;;;;5014946;28;20063;-69
2022/01/14 00:46:27;;;;;;;41.88;17.40;;;5.90;99.90;;;;;;5031171;28;20048;-66
2022/01/14 00:48:52;;;;;;;40.45;16.83;;;5.90;99.90;;;;;;5035284;28;20124;-67
2022/01/14 00:51:18;;;;;;;43.13;18.10;;;5.90;99.90;;;;;;5033098;28;20099;-69
2022/01/14 00:53:43;;;;;;;42.25;18.50;;;5.90;99.90;;;;;;5011674;28;20041;-67
2022/01/14 00:56:25;;;;;;;43.35;17.77;;;5.90;99.90;;;;;;5032350;28;20098;-67
2022/01/14 01:01:36;;;;;;;45.53;17.17;;;5.90;99.90;;;;;;5037261;28;20064;-68
2022/01/14 01:04:01;;;;;;;39.13;16.73;;;5.90;99.90;;;;;;5026145;28;20033;-67
2022/01/14 01:06:27;;;;;;;33.85;15.55;;;5.90;99.90;;;;;;5041791;28;20090;-67
2022/01/14 01:08:55;;;;;;;41.40;17.00;;;5.90;99.90;;;;;;5042143;28;20041;-68
2022/01/14 01:11:26;;;;;;;33.47;15.40;;;5.90;99.90;;;;;;5040209;28;20045;-68
2022/01/14 01:14:02;;;;;;;37.00;16.25;;;5.90;99.90;;;;;;5034730;28;20036;-67
2022/01/14 01:16:28;;;;;;;28.92;15.45;;;5.90;99.90;;;;;;5036902;28;20501;-67
2022/01/14 01:18:53;;;;;;;35.85;15.52;;;5.90;99.90;;;;;;5045615;28;20140;-67
2022/01/14 01:21:19;;;;;;;32.08;15.15;;;5.90;99.90;;;;;;5045253;28;20049;-67
2022/01/14 01:23:44;;;;;;;32.78;15.13;;;5.90;99.90;;;;;;5047498;28;20044;-66
2022/01/14 01:26:16;;;;;;;35.40;15.15;;;5.90;99.90;;;;;;5026036;28;20029;-67
2022/01/14 01:31:37;;;;;;;33.78;15.43;;;5.90;99.90;;;;;;5036150;28;20120;-67
2022/01/14 01:34:05;;;;;;;35.78;15.95;;;5.90;99.90;;;;;;5033004;28;20401;-67
2022/01/14 01:36:30;;;;;;;39.03;15.90;;;5.80;99.90;;;;;;5027380;28;20052;-67
2022/01/14 01:38:56;;;;;;;33.90;15.63;;;5.80;99.90;;;;;;5029948;28;20045;-68
2022/01/14 01:41:21;;;;;;;38.13;15.30;;;5.80;99.90;;;;;;5031695;28;20041;-67
2022/01/14 01:43:51;;;;;;;40.20;16.67;;;5.80;99.90;;;;;;5041165;28;20060;-68
2022/01/14 01:46:19;;;;;;;30.00;13.88;;;5.80;99.90;;;;;;5027832;28;20045;-67
2022/01/14 01:48:46;;;;;;;35.67;15.60;;;5.80;99.90;;;;;;5034706;28;20550;-67
2022/01/14 01:51:12;;;;;;;38.30;16.48;;;5.70;99.90;;;;;;5038067;28;20401;-67
2022/01/14 01:53:38;;;;;;;36.47;16.70;;;5.70;99.90;;;;;;5012005;28;20041;-68
2022/01/14 01:56:03;;;;;;;37.95;17.55;;;5.70;99.90;;;;;;5045087;28;20033;-68
2022/01/14 01:58:29;;;;;;;39.92;16.58;;;5.70;99.90;;;;;;5027799;28;20147;-67
2022/01/14 02:00:55;;;;;;;32.60;15.85;;;5.70;99.90;;;;;;5027938;28;20465;-67
2022/01/14 02:03:20;;;;;;;35.88;16.50;;;5.60;99.90;;;;;;5039721;28;20586;-67
2022/01/14 02:05:46;;;;;;;41.13;17.67;;;5.60;99.90;;;;;;5026922;28;20037;-67
2022/01/14 02:08:12;;;;;;;40.78;17.05;;;5.60;99.90;;;;;;5038564;28;20089;-67
2022/01/14 02:10:39;;;;;;;42.53;18.08;;;5.60;99.90;;;;;;5016279;28;20136;-67
2022/01/14 02:13:05;;;;;;;39.58;16.83;;;5.60;99.90;;;;;;5040246;28;20411;-69
2022/01/14 02:15:43;;;;;;;39.45;17.75;;;5.70;99.90;;;;;;5030765;28;20037;-67
2022/01/14 02:23:22;;;;;;;42.47;17.05;;;5.70;99.90;;;;;;5036988;28;20053;-67
2022/01/14 02:25:48;;;;;;;38.35;15.52;;;5.70;99.90;;;;;;5031683;28;20076;-67
2022/01/14 02:28:17;;;;;;;36.50;16.33;;;5.70;99.90;;;;;;5045811;28;20446;-67
2022/01/14 02:30:44;;;;;;;40.17;17.40;;;5.70;99.90;;;;;;5041234;28;20174;-67
2022/01/14 02:33:11;;;;;;;35.60;16.83;;;5.80;99.90;;;;;;5035399;28;20551;-67
2022/01/14 02:35:39;;;;;;;37.05;15.98;;;5.80;99.90;;;;;;5025493;28;20041;-67
2022/01/14 02:38:05;;;;;;;40.35;16.52;;;5.80;99.90;;;;;;5030206;28;20033;-67
2022/01/14 02:40:31;;;;;;;39.03;15.63;;;5.80;99.90;;;;;;5036357;28;20089;-67
2022/01/14 02:43:00;;;;;;;46.05;17.55;;;5.80;99.90;;;;;;5035437;28;20041;-67
2022/01/14 02:45:30;;;;;;;38.22;16.55;;;5.80;99.90;;;;;;5025299;28;20103;-67
2022/01/14 02:47:56;;;;;;;35.58;17.35;;;5.80;99.90;;;;;;5029932;28;20044;-67
2022/01/14 02:50:23;;;;;;;36.95;16.80;;;5.80;99.90;;;;;;5023983;28;20041;-67
2022/01/14 02:55:19;;;;;;;38.28;18.27;;;5.80;99.90;;;;;;5039586;28;20044;-67
2022/01/14 02:57:48;;;;;;;40.13;16.52;;;5.80;99.90;;;;;;5039949;28;20572;-67
2022/01/14 03:00:15;;;;;;;36.53;16.42;;;5.80;99.90;;;;;;5049350;28;20040;-67
2022/01/14 03:02:46;;;;;;;34.80;15.95;;;5.80;99.90;;;;;;5037059;28;20110;-67
2022/01/14 03:05:12;;;;;;;37.60;17.10;;;5.80;99.90;;;;;;5012375;28;20121;-67
2022/01/14 03:07:40;;;;;;;33.38;15.93;;;5.80;99.90;;;;;;5044272;28;20052;-67
2022/01/14 03:10:08;;;;;;;41.95;16.27;;;5.80;99.90;;;;;;5044481;28;20465;-67
2022/01/14 03:12:34;;;;;;;39.05;17.30;;;5.90;99.90;;;;;;5043042;28;20037;-67
2022/01/14 03:15:00;;;;;;;41.33;17.15;;;5.90;99.90;;;;;;5039729;28;20488;-67
2022/01/14 03:17:28;;;;;;;38.15;16.52;;;5.90;99.90;;;;;;5044961;28;20114;-67
2022/01/14 03:19:54;;;;;;;42.45;16.48;;;5.90;99.90;;;;;;5048984;28;20061;-67
2022/01/14 03:22:41;;;;;;;40.17;17.05;;;5.90;99.90;;;;;;5045863;28;20071;-67
2022/01/14 03:27:53;;;;;;;42.97;16.88;;;5.90;99.90;;;;;;5037701;28;20144;-67
2022/01/14 03:30:18;;;;;;;35.45;16.60;;;5.90;99.90;;;;;;5036132;28;20029;-67
2022/01/14 03:32:45;;;;;;;41.63;18.52;;;5.90;99.90;;;;;;5042646;28;20580;-67
2022/01/14 03:35:11;;;;;;;39.80;17.50;;;5.90;99.90;;;;;;5046723;28;20064;-67
2022/01/14 03:37:37;;;;;;;41.55;17.77;;;5.90;99.90;;;;;;5039523;28;20040;-67
2022/01/14 03:40:04;;;;;;;42.60;18.67;;;5.90;99.90;;;;;;5034916;28;20334;-67
2022/01/14 03:42:30;;;;;;;40.05;17.60;;;5.90;99.90;;;;;;5022245;28;20373;-67
2022/01/14 03:44:56;;;;;;;43.42;18.40;;;6.00;99.90;;;;;;5031051;28;20045;-67
2022/01/14 03:47:21;;;;;;;39.42;17.42;;;6.00;99.90;;;;;;5038025;28;20056;-67
2022/01/14 03:49:47;;;;;;;41.35;17.20;;;6.00;99.90;;;;;;5042101;28;20040;-69
2022/01/14 03:52:13;;;;;;;50.83;17.38;;;6.00;99.90;;;;;;5030811;28;20044;-67
2022/01/14 03:54:39;;;;;;;41.70;19.13;;;6.00;99.90;;;;;;5034989;28;20045;-69
2022/01/14 03:57:05;;;;;;;40.58;18.15;;;6.00;99.90;;;;;;5020528;28;20037;-67
2022/01/14 03:59:30;;;;;;;41.15;17.30;;;6.00;99.90;;;;;;5041563;28;20041;-67
2022/01/14 04:01:56;;;;;;;39.53;17.60;;;6.00;99.90;;;;;;5039102;28;20191;-67
2022/01/14 04:04:21;;;;;;;40.65;17.05;;;6.00;99.90;;;;;;5027843;28;20045;-67
2022/01/14 04:06:47;;;;;;;40.47;18.42;;;6.00;99.90;;;;;;5011977;28;20053;-67
2022/01/14 04:09:12;;;;;;;37.03;17.25;;;6.00;99.90;;;;;;5027993;28;20051;-67
2022/01/14 04:11:39;;;;;;;47.53;18.13;;;6.00;99.90;;;;;;5042608;28;20221;-66
2022/01/14 04:15:36;;;;;;;41.33;17.58;;;6.00;99.90;;;;;;5038320;28;20112;-67
2022/01/14 04:16:53;;;;;;;39.25;17.98;;;6.00;99.90;;;;;;5034419;28;20522;-67
2022/01/14 04:19:19;;;;;;;46.03;19.15;;;6.00;99.90;;;;;;5044613;28;20586;-66
2022/01/14 04:21:45;;;;;;;40.85;18.13;;;6.00;99.90;;;;;;5014735;28;20092;-67
2022/01/14 04:24:10;;;;;;;41.60;19.05;;;6.10;99.90;;;;;;5039836;28;20072;-67
2022/01/14 04:26:36;;;;;;;48.25;19.55;;;6.00;99.90;;;;;;5038953;28;20033;-67
2022/01/14 04:29:02;;;;;;;41.00;18.02;;;6.00;99.90;;;;;;5018428;28;20299;-67
2022/01/14 04:31:27;;;;;;;39.03;18.85;;;6.00;99.90;;;;;;5041274;28;20180;-67
2022/01/14 04:33:53;;;;;;;48.72;19.70;;;6.00;99.90;;;;;;5040644;28;20045;-67
2022/01/14 04:36:18;;;;;;;40.58;18.75;;;6.00;99.90;;;;;;5010481;28;20477;-67
2022/01/14 04:38:44;;;;;;;39.55;18.00;;;6.00;99.90;;;;;;5035143;28;20041;-67
2022/01/14 04:41:10;;;;;;;45.55;18.67;;;6.00;99.90;;;;;;5032179;28;20346;-68
2022/01/14 04:43:36;;;;;;;37.58;17.63;;;6.00;99.90;;;;;;5045822;28;20041;-66
2022/01/14 04:46:25;;;;;;;41.33;18.48;;;6.00;99.90;;;;;;5047431;28;20124;-67
2022/01/14 04:48:47;;;;;;;42.97;18.73;;;6.00;99.90;;;;;;5042302;28;20140;-67
2022/01/14 04:51:13;;;;;;;45.85;20.42;;;6.00;99.90;;;;;;5039029;28;20136;-68
2022/01/14 04:53:39;;;;;;;45.15;19.70;;;6.00;99.90;;;;;;5044034;28;20033;-67
2022/01/14 04:56:05;;;;;;;42.13;18.85;;;6.00;99.90;;;;;;5041887;28;20592;-67
2022/01/14 04:58:30;;;;;;;42.55;20.08;;;6.00;99.90;;;;;;5036950;28;20133;-68
2022/01/14 05:00:56;;;;;;;53.40;21.30;;;6.00;99.90;;;;;;5040491;28;20459;-67
2022/01/14 05:03:22;;;;;;;47.15;20.83;;;6.00;99.90;;;;;;5019418;28;20036;-68
2022/01/14 05:05:48;;;;;;;44.90;19.77;;;5.90;99.90;;;;;;5040167;28;20458;-66
2022/01/14 05:08:25;;;;;;;51.70;20.80;;;5.80;99.90;;;;;;5035843;28;20601;-69
2022/01/14 05:13:20;;;;;;;46.97;20.20;;;5.80;99.90;;;;;;5040926;28;20128;-67
2022/01/14 05:15:46;;;;;;;45.50;19.48;;;5.80;99.90;;;;;;5035024;28;20065;-67
2022/01/14 05:18:12;;;;;;;46.50;20.75;;;5.80;99.90;;;;;;5036279;28;20551;-67
2022/01/14 05:20:38;;;;;;;49.85;20.15;;;5.80;99.90;;;;;;5026990;28;20060;-67
2022/01/14 05:23:04;;;;;;;50.28;20.23;;;5.80;99.90;;;;;;5038927;28;20547;-68
2022/01/14 05:25:30;;;;;;;47.38;21.00;;;5.70;99.90;;;;;;5038597;28;20103;-67
2022/01/14 05:27:55;;;;;;;49.55;21.05;;;5.70;99.90;;;;;;5045435;28;20083;-67
2022/01/14 05:30:22;;;;;;;46.15;21.23;;;5.70;99.90;;;;;;5037166;28;20060;-69
2022/01/14 05:32:51;;;;;;;53.15;22.42;;;5.70;99.90;;;;;;5029511;28;20044;-68
2022/01/14 05:35:19;;;;;;;51.63;22.35;;;5.70;99.90;;;;;;5044947;28;20116;-67
2022/01/14 05:37:44;;;;;;;47.08;20.42;;;5.70;99.90;;;;;;5033610;28;20067;-67
2022/01/14 05:40:11;;;;;;;54.35;20.90;;;5.60;99.90;;;;;;5035160;28;20044;-67
2022/01/14 05:42:37;;;;;;;50.65;21.80;;;5.60;99.90;;;;;;5037868;28;20047;-67
2022/01/14 05:45:07;;;;;;;47.70;21.52;;;5.60;99.90;;;;;;5024088;28;20040;-68
2022/01/14 05:47:34;;;;;;;50.15;21.42;;;5.60;99.90;;;;;;5046547;28;20037;-67
2022/01/14 05:50:00;;;;;;;54.53;22.58;;;5.70;99.90;;;;;;5032543;28;20461;-67
2022/01/14 05:52:25;;;;;;;49.30;21.08;;;5.70;99.90;;;;;;5034470;28;20041;-67
2022/01/14 05:54:53;;;;;;;48.58;20.98;;;5.60;99.90;;;;;;5030879;28;20065;-67
2022/01/14 05:57:22;;;;;;;51.75;21.63;;;5.70;99.90;;;;;;5032996;28;20037;-68
2022/01/14 05:59:48;;;;;;;53.85;22.17;;;5.70;99.90;;;;;;5035016;28;20163;-68
2022/01/14 06:02:13;;;;;;;48.83;22.08;;;5.70;99.90;;;;;;5035531;28;20060;-67
2022/01/14 06:04:39;;;;;;;50.78;22.73;;;5.70;99.90;;;;;;5039071;28;20550;-67
2022/01/14 06:07:05;;;;;;;45.75;20.98;;;5.70;99.90;;;;;;5021411;28;20420;-68
2022/01/14 06:09:31;;;;;;;48.30;22.00;;;5.70;99.90;;;;;;5028724;28;20480;-67
2022/01/14 06:11:56;;;;;;;49.55;20.58;;;5.70;99.90;;;;;;5033816;28;20037;-67
2022/01/14 06:14:22;;;;;;;47.92;21.95;;;5.70;99.90;;;;;;5041732;28;20025;-67
2022/01/14 06:16:47;;;;;;;49.00;22.25;;;5.70;99.90;;;;;;5045517;28;22364;-67
2022/01/14 06:19:13;;;;;;;50.00;20.88;;;5.70;99.90;;;;;;5045140;28;20060;-68
2022/01/14 06:21:38;;;;;;;49.53;21.55;;;5.70;99.90;;;;;;5012177;28;20061;-67
2022/01/14 06:24:05;;;;;;;49.75;20.90;;;5.70;99.90;;;;;;5029644;28;20069;-68
2022/01/14 06:26:30;;;;;;;41.30;20.17;;;5.70;99.90;;;;;;5043305;28;20440;-67
2022/01/14 06:28:56;;;;;;;51.63;20.67;;;5.70;99.90;;;;;;5048129;28;20053;-67
2022/01/14 06:31:22;;;;;;;44.50;20.95;;;5.70;99.90;;;;;;5043341;28;20030;-67
2022/01/14 06:33:47;;;;;;;50.92;20.05;;;5.70;99.90;;;;;;5028946;28;20049;-66
2022/01/14 06:36:13;;;;;;;44.70;18.80;;;5.70;99.90;;;;;;5039932;28;20154;-67
2022/01/14 06:38:39;;;;;;;45.45;19.85;;;5.70;99.90;;;;;;5049158;28;20052;-67
2022/01/14 06:41:05;;;;;;;45.33;19.85;;;5.70;99.90;;;;;;5019897;28;20608;-66
2022/01/14 06:43:30;;;;;;;41.53;18.45;;;5.70;99.90;;;;;;5032018;28;20055;-67
2022/01/14 06:45:56;;;;;;;43.05;18.75;;;5.70;99.90;;;;;;5037016;28;20068;-67
2022/01/14 06:48:21;;;;;;;45.97;20.25;;;5.70;99.90;;;;;;5032826;28;20033;-67
2022/01/14 06:50:47;;;;;;;41.00;18.55;;;5.70;99.90;;;;;;5032842;28;20407;-67
2022/01/14 06:53:13;;;;;;;43.92;18.83;;;5.70;99.90;;;;;;5031690;28;20444;-67
2022/01/14 06:55:39;;;;;;;39.22;18.15;;;5.80;99.90;;;;;;5016789;28;20049;-66
2022/01/14 06:58:04;;;;;;;40.92;18.52;;;5.70;99.90;;;;;;5042020;28;20044;-67
2022/01/14 07:00:32;;;;;;;43.70;18.80;;;5.70;99.90;;;;;;5045853;28;20041;-68
2022/01/14 07:02:57;;;;;;;40.85;18.80;;;5.80;99.90;;;;;;5042312;28;20404;-68
2022/01/14 07:05:23;;;;;;;43.22;19.25;;;5.80;99.90;;;;;;5031973;28;20041;-67
2022/01/14 07:07:48;;;;;;;37.97;18.85;;;5.70;99.90;;;;;;5044679;28;20044;-68
2022/01/14 07:10:14;;;;;;;40.42;18.83;;;5.80;99.90;;;;;;5032662;28;20128;-67
2022/01/14 07:12:42;;;;;;;41.08;18.85;;;5.70;99.90;;;;;;5043651;28;20041;-67
2022/01/14 07:15:10;;;;;;;44.97;19.20;;;5.80;99.90;;;;;;5043227;28;20105;-67
2022/01/14 07:17:37;;;;;;;42.72;18.77;;;5.80;99.90;;;;;;5035485;28;20052;-67
2022/01/14 07:20:10;;;;;;;37.95;18.50;;;5.80;99.90;;;;;;5034058;28;20129;-67
2022/01/14 07:22:36;;;;;;;39.65;18.42;;;5.80;99.90;;;;;;5017256;28;20056;-68
2022/01/14 07:25:03;;;;;;;42.10;18.80;;;5.80;99.90;;;;;;5047623;28;20136;-67
2022/01/14 07:27:28;;;;;;;37.80;18.10;;;5.80;99.90;;;;;;5030452;28;20052;-68
2022/01/14 07:29:55;;;;;;;43.83;19.35;;;5.80;99.90;;;;;;5040008;28;20037;-67
2022/01/14 07:32:21;;;;;;;40.17;18.05;;;5.80;99.90;;;;;;5044896;28;20037;-68
2022/01/14 07:34:48;;;;;;;38.63;18.65;;;5.80;99.90;;;;;;5030812;28;20080;-68
2022/01/14 07:37:14;;;;;;;39.20;17.52;;;5.80;99.90;;;;;;5028344;28;20048;-68
2022/01/14 07:39:39;;;;;;;36.30;17.98;;;5.80;99.90;;;;;;5028148;28;20146;-70
2022/01/14 07:42:05;;;;;;;39.97;19.35;;;5.80;99.90;;;;;;5029184;28;20081;-67
2022/01/14 07:44:31;;;;;;;39.25;16.92;;;5.80;99.90;;;;;;5026921;28;20068;-68
2022/01/14 07:46:57;;;;;;;40.28;17.63;;;5.80;99.90;;;;;;5028744;28;20129;-68
2022/01/14 07:49:22;;;;;;;36.60;18.08;;;5.80;99.90;;;;;;5042783;28;20489;-68
2022/01/14 07:51:48;;;;;;;31.98;16.77;;;5.80;99.90;;;;;;5049029;28;20184;-67
2022/01/14 07:54:13;;;;;;;35.33;17.30;;;5.80;99.90;;;;;;5049079;28;20190;-67
2022/01/14 07:56:47;;;;;;;41.20;17.83;;;5.80;99.90;;;;;;5039743;28;20156;-68
2022/01/14 07:59:15;;;;;;;36.03;17.27;;;5.90;99.90;;;;;;5029310;28;20068;-67
2022/01/14 08:01:42;;;;;;;41.65;17.58;;;5.80;99.90;;;;;;5015885;28;20041;-67
2022/01/14 08:04:08;;;;;;;41.80;17.85;;;5.90;99.90;;;;;;5048946;28;20084;-67
2022/01/14 08:06:37;;;;;;;40.75;17.65;;;5.90;99.90;;;;;;5048415;28;20068;-67
2022/01/14 08:09:03;;;;;;;34.05;17.15;;;5.90;99.90;;;;;;5042288;28;20041;-67
2022/01/14 08:11:28;;;;;;;31.60;16.27;;;5.90;99.90;;;;;;5037890;28;20041;-67
2022/01/14 08:13:54;;;;;;;34.35;15.88;;;5.90;99.90;;;;;;5037751;28;20067;-67
2022/01/14 08:16:20;;;;;;;34.78;16.40;;;5.90;99.90;;;;;;5036147;28;20033;-68
2022/01/14 08:18:45;;;;;;;39.50;16.50;;;5.90;99.90;;;;;;5038474;28;20114;-67
2022/01/14 08:21:11;;;;;;;37.05;16.50;;;5.90;99.90;;;;;;5036838;28;20049;-68
2022/01/14 08:23:38;;;;;;;32.20;16.25;;;6.00;99.90;;;;;;5038315;28;20037;-67
2022/01/14 08:26:03;;;;;;;32.42;16.00;;;6.00;99.90;;;;;;5036700;28;20119;-66
2022/01/14 08:28:29;;;;;;;36.33;15.45;;;6.00;99.90;;;;;;5037359;28;20136;-68
2022/01/14 08:30:55;;;;;;;36.20;15.10;;;6.00;99.90;;;;;;5018556;28;20629;-68
2022/01/14 08:33:20;;;;;;;32.90;15.18;;;6.00;99.90;;;;;;5039487;28;20048;-67
2022/01/14 08:35:46;;;;;;;29.83;14.50;;;6.00;99.90;;;;;;5041289;28;20090;-68
2022/01/14 08:38:13;;;;;;;29.25;14.95;;;6.10;99.90;;;;;;5012323;28;20095;-67
2022/01/14 08:40:39;;;;;;;34.13;15.52;;;6.10;99.90;;;;;;5043545;28;20049;-68
2022/01/14 08:43:05;;;;;;;30.90;14.77;;;6.10;99.90;;;;;;5040099;28;20037;-68
2022/01/14 08:45:30;;;;;;;35.00;15.02;;;6.10;99.90;;;;;;5035506;28;20087;-68
2022/01/14 08:47:56;;;;;;;34.53;14.23;;;6.20;99.90;;;;;;5044103;28;20434;-67
2022/01/14 08:50:36;;;;;;;30.50;14.25;;;6.10;99.90;;;;;;5013138;28;20098;-67
2022/01/14 08:53:09;;;;;;;35.95;15.15;;;6.20;99.90;;;;;;5044259;28;20044;-67
2022/01/14 08:55:36;;;;;;;34.80;14.48;;;6.20;99.90;;;;;;5044374;28;20040;-68
2022/01/14 08:58:03;;;;;;;30.40;13.30;;;6.20;99.90;;;;;;5044877;28;20041;-68
2022/01/14 09:00:29;;;;;;;35.40;15.57;;;6.30;99.90;;;;;;5046975;28;20158;-68
2022/01/14 09:02:55;;;;;;;32.47;14.98;;;6.30;99.90;;;;;;5040533;28;20037;-67
2022/01/14 09:05:22;;;;;;;31.15;14.45;;;6.30;99.90;;;;;;5027640;28;20049;-67
2022/01/14 09:07:49;;;;;;;35.67;14.10;;;6.40;99.90;;;;;;5042892;28;20052;-67
2022/01/14 09:10:14;;;;;;;35.28;13.02;;;6.40;99.90;;;;;;5045694;28;20041;-68
2022/01/14 09:12:40;;;;;;;26.58;13.90;;;6.40;99.90;;;;;;5042427;28;20048;-68
2022/01/14 09:15:07;;;;;;;30.35;14.00;;;6.40;99.90;;;;;;5034802;28;20044;-67
2022/01/14 09:17:33;;;;;;;36.17;13.52;;;6.50;99.90;;;;;;5043247;28;20135;-68
2022/01/14 09:20:02;;;;;;;25.15;12.32;;;6.50;99.90;;;;;;5026537;28;20176;-67
2022/01/14 09:22:30;;;;;;;28.30;12.68;;;6.60;99.90;;;;;;5026187;28;20100;-68
2022/01/14 09:24:57;;;;;;;25.55;13.20;;;6.50;99.90;;;;;;5028550;28;20049;-68
2022/01/14 09:27:23;;;;;;;28.63;12.55;;;6.60;99.90;;;;;;5011267;28;20037;-67
2022/01/14 09:29:49;;;;;;;27.58;12.18;;;6.60;99.90;;;;;;5029606;28;20507;-68
2022/01/14 09:32:15;;;;;;;23.50;12.10;;;6.60;99.90;;;;;;5020303;28;20098;-68
2022/01/14 09:34:40;;;;;;;24.67;12.00;;;6.70;99.90;;;;;;5028183;28;20101;-67
2022/01/14 09:37:06;;;;;;;25.52;11.23;;;6.70;99.90;;;;;;5013416;28;20409;-68
2022/01/14 09:39:32;;;;;;;27.10;11.50;;;6.70;99.90;;;;;;5029299;28;20086;-67
2022/01/14 09:41:59;;;;;;;21.33;10.73;;;6.80;99.90;;;;;;5032812;28;20029;-68
2022/01/14 09:44:25;;;;;;;24.75;11.20;;;6.80;99.90;;;;;;5043968;28;20040;-68
2022/01/14 09:46:52;;;;;;;21.17;10.75;;;6.90;99.90;;;;;;5028339;28;20033;-68
2022/01/14 09:49:20;;;;;;;22.88;10.48;;;6.90;99.90;;;;;;5044339;28;20619;-68
2022/01/14 09:51:46;;;;;;;25.48;10.68;;;6.90;99.90;;;;;;5046098;28;20048;-68
2022/01/14 09:54:11;;;;;;;20.45;9.77;;;7.00;99.90;;;;;;5046210;28;20041;-68
2022/01/14 09:56:38;;;;;;;22.85;10.13;;;7.00;99.90;;;;;;5037536;28;20029;-68
2022/01/14 09:59:04;;;;;;;16.88;9.45;;;7.10;99.90;;;;;;5031817;28;20388;-66
2022/01/14 10:01:38;;;;;;;23.90;8.85;;;7.10;99.90;;;;;;5030385;28;20185;-66
2022/01/14 10:04:04;;;;;;;22.67;9.02;;;7.10;99.90;;;;;;5035467;28;20063;-69
2022/01/14 10:06:44;;;;;;;20.75;8.07;;;7.10;99.90;;;;;;5030650;28;20104;-68
2022/01/14 10:09:19;;;;;;;19.83;8.02;;;7.20;99.90;;;;;;5033385;28;20507;-68
2022/01/14 10:11:59;;;;;;;17.08;8.50;;;7.30;99.90;;;;;;5035990;28;20037;-68
2022/01/14 10:14:24;;;;;;;18.65;7.05;;;7.30;99.90;;;;;;5014414;28;20040;-68
2022/01/14 10:16:54;;;;;;;20.75;6.90;;;7.30;99.90;;;;;;5022821;28;20135;-69
2022/01/14 10:19:22;;;;;;;17.50;7.47;;;7.40;99.90;;;;;;5014968;28;20095;-68
2022/01/14 10:21:49;;;;;;;18.05;7.65;;;7.40;99.90;;;;;;5039379;28;20508;-67
2022/01/14 10:24:15;;;;;;;15.43;7.47;;;7.40;99.90;;;;;;5030291;28;20042;-68
2022/01/14 10:26:56;;;;;;;19.23;6.50;;;7.50;99.90;;;;;;5029027;28;20107;-68
2022/01/14 10:29:40;;;;;;;15.52;6.70;;;7.50;99.90;;;;;;5030553;28;20071;-68
2022/01/14 10:32:08;;;;;;;16.13;7.00;;;7.60;99.90;;;;;;5043181;28;20033;-68
2022/01/14 10:34:35;;;;;;;12.25;6.07;;;7.50;99.90;;;;;;5052281;28;20107;-67
2022/01/14 10:37:12;;;;;;;14.88;6.40;;;7.60;99.90;;;;;;5029432;28;20045;-67
2022/01/14 10:39:47;;;;;;;12.65;5.80;;;7.60;99.90;;;;;;5037447;28;20131;-68
2022/01/14 10:42:25;;;;;;;19.02;6.60;;;7.60;99.90;;;;;;5031113;28;20060;-68
2022/01/14 10:44:50;;;;;;;12.73;6.10;;;7.70;99.90;;;;;;5034547;28;20193;-67
2022/01/14 10:47:17;;;;;;;18.73;6.32;;;7.70;99.90;;;;;;5047732;28;20616;-68
2022/01/14 10:49:48;;;;;;;16.60;6.10;;;7.70;99.90;;;;;;5051208;28;20060;-68
2022/01/14 10:52:18;;;;;;;13.40;5.90;;;7.70;99.90;;;;;;5047411;28;20041;-68
2022/01/14 10:54:47;;;;;;;15.70;6.47;;;7.70;99.90;;;;;;5051050;28;20048;-68
2022/01/14 10:57:18;;;;;;;15.40;5.80;;;7.70;99.90;;;;;;5046515;28;20029;-68
2022/01/14 10:59:46;;;;;;;17.48;5.70;;;7.70;99.90;;;;;;5049333;28;20077;-67
2022/01/14 11:02:37;;;;;;;13.63;5.50;;;7.70;99.90;;;;;;5027377;28;20041;-68
2022/01/14 11:05:11;;;;;;;11.93;5.63;;;7.70;99.90;;;;;;5035078;28;20439;-68
2022/01/14 11:07:39;;;;;;;12.07;5.30;;;7.70;99.90;;;;;;5024229;28;20038;-69
2022/01/14 11:10:16;;;;;;;12.15;5.68;;;7.60;99.90;;;;;;5029824;28;20042;-68
2022/01/14 11:12:43;;;;;;;11.32;5.57;;;7.70;99.90;;;;;;5044778;28;20033;-67
2022/01/14 11:15:10;;;;;;;14.07;5.78;;;7.70;99.90;;;;;;5048468;28;20041;-68
2022/01/14 11:17:41;;;;;;;12.75;6.07;;;7.70;99.90;;;;;;5044320;28;20036;-68
2022/01/14 11:20:09;;;;;;;10.68;5.07;;;7.60;99.90;;;;;;5028996;28;20066;-73
2022/01/14 11:25:19;;;;;;;15.90;5.60;;;7.60;99.90;;;;;;5030973;28;20056;-67
2022/01/14 11:27:55;;;;;;;14.20;5.28;;;7.60;99.90;;;;;;5028685;28;20049;-68
2022/01/14 11:30:31;;;;;;;13.00;4.72;;;7.60;99.90;;;;;;5029303;28;20056;-67
2022/01/14 11:33:01;;;;;;;14.40;4.47;;;7.60;99.90;;;;;;5028702;28;20156;-68
2022/01/14 11:35:27;;;;;;;10.32;5.03;;;7.60;99.90;;;;;;5038308;28;20068;-68
2022/01/14 11:37:52;;;;;;;12.45;5.35;;;7.70;99.90;;;;;;5043977;28;20045;-67
2022/01/14 11:40:19;;;;;;;12.82;5.35;;;7.70;99.90;;;;;;5043249;28;20171;-68
2022/01/14 11:42:47;;;;;;;13.23;5.53;;;7.70;99.90;;;;;;5041697;28;20099;-68
2022/01/14 11:45:14;;;;;;;17.67;5.75;;;7.70;99.90;;;;;;5021015;28;20033;-68
2022/01/14 11:47:42;;;;;;;13.93;5.60;;;7.70;99.90;;;;;;5036159;28;20076;-68
2022/01/14 11:50:30;;;;;;;12.57;5.43;;;7.70;99.90;;;;;;5016036;28;20037;-68
2022/01/14 11:52:58;;;;;;;11.30;4.90;;;7.70;99.90;;;;;;5023045;28;20072;-68
2022/01/14 11:55:26;;;;;;;14.68;4.97;;;7.70;99.90;;;;;;5036923;28;20326;-68
2022/01/14 11:57:56;;;;;;;15.05;4.60;;;7.70;99.90;;;;;;5019442;28;20389;-68
2022/01/14 12:00:38;;;;;;;11.50;4.50;;;7.80;99.90;;;;;;5032646;28;20088;-67
2022/01/14 12:03:06;;;;;;;13.57;4.97;;;7.70;99.90;;;;;;5034350;28;20342;-68
2022/01/14 12:05:32;;;;;;;10.20;4.63;;;7.70;99.90;;;;;;5024325;28;20061;-68
2022/01/14 12:10:41;;;;;;;17.83;4.80;;;7.80;99.90;;;;;;5032573;28;20453;-68
2022/01/14 12:13:40;;;;;;;12.93;4.70;;;7.80;99.90;;;;;;5039810;28;20032;-67
2022/01/14 12:17:00;;;;;;;11.77;4.47;;;7.80;99.90;;;;;;5035855;28;20048;-68
2022/01/14 12:19:28;;;;;;;10.90;4.22;;;7.80;99.90;;;;;;5028632;28;20089;-67
2022/01/14 12:21:54;;;;;;;13.07;4.25;;;7.80;99.90;;;;;;5030927;28;20045;-67
2022/01/14 12:24:27;;;;;;;10.23;4.53;;;7.80;99.90;;;;;;5044347;28;20633;-67
2022/01/14 12:27:00;;;;;;;15.68;5.05;;;7.80;99.90;;;;;;5029290;28;20055;-67
2022/01/14 12:29:33;;;;;;;14.25;4.55;;;7.80;99.90;;;;;;5022747;28;20369;-68
2022/01/14 12:32:10;;;;;;;13.73;5.25;;;7.80;99.90;;;;;;5028117;28;20033;-67
2022/01/14 12:34:45;;;;;;;12.10;4.80;;;7.90;99.90;;;;;;5040486;28;20099;-67
2022/01/14 12:37:21;;;;;;;15.88;5.28;;;7.80;99.90;;;;;;5028576;28;20406;-68
2022/01/14 12:39:49;;;;;;;11.82;4.28;;;7.80;99.90;;;;;;5030620;28;20037;-68
2022/01/14 12:42:17;;;;;;;11.38;4.22;;;7.80;99.90;;;;;;5027444;28;20102;-67
2022/01/14 12:44:44;;;;;;;15.88;4.60;;;7.80;99.90;;;;;;5037961;28;20102;-67
2022/01/14 12:47:12;;;;;;;14.70;3.83;;;7.90;99.90;;;;;;5040479;28;20064;-68
2022/01/14 12:49:40;;;;;;;15.55;3.90;;;7.90;99.90;;;;;;5030962;28;20056;-68
2022/01/14 12:52:09;;;;;;;10.57;4.10;;;7.90;99.90;;;;;;5048059;28;20044;-68
2022/01/14 12:54:38;;;;;;;9.95;4.00;;;7.80;99.90;;;;;;5047129;28;20155;-67
2022/01/14 12:57:04;;;;;;;12.75;4.30;;;7.80;99.90;;;;;;5027126;28;20064;-68
2022/01/14 12:59:48;;;;;;;11.35;3.92;;;7.80;99.90;;;;;;5048657;28;20381;-68
2022/01/14 13:02:16;;;;;;;9.68;4.05;;;7.80;99.90;;;;;;5024411;28;20049;-68
2022/01/14 13:04:42;;;;;;;10.75;3.83;;;7.80;99.90;;;;;;5038623;28;20477;-68
2022/01/14 13:07:08;;;;;;;11.88;4.40;;;7.80;99.90;;;;;;5046893;28;20052;-67
2022/01/14 13:09:37;;;;;;;13.38;4.25;;;7.70;99.90;;;;;;5045583;28;20037;-68
2022/01/14 13:12:10;;;;;;;11.43;3.97;;;7.70;99.90;;;;;;5045066;28;20373;-68
2022/01/14 13:14:43;;;;;;;12.45;4.28;;;7.70;99.90;;;;;;5033995;28;20064;-68
2022/01/14 13:17:17;;;;;;;19.42;4.82;;;7.80;99.90;;;;;;5047087;28;20049;-68